createdAt,value
2018-11-20T00:01:29.481Z,73.91
2018-11-20T00:04:37.968Z,73.72
2018-11-20T00:07:32.438Z,74.00
2018-11-20T00:10:40.907Z,74.01
2018-11-20T00:13:44.771Z,74.37
2018-11-20T00:19:50.193Z,74.47
2018-11-20T00:22:51.404Z,74.32
2018-11-20T00:28:57.161Z,73.82
2018-11-20T00:32:04.326Z,74.20
2018-11-20T00:35:12.821Z,74.09
2018-11-20T00:38:13.742Z,73.74
2018-11-20T00:41:22.218Z,74.01
2018-11-20T00:44:23.510Z,73.49
2018-11-20T00:47:25.017Z,73.78
2018-11-20T00:50:33.534Z,74.06
2018-11-20T00:53:34.845Z,73.78
2018-11-20T00:57:02.370Z,73.73
2018-11-20T00:59:51.499Z,74.10
2018-11-20T01:02:41.155Z,73.87
2018-11-20T01:05:30.692Z,74.25
2018-11-20T01:08:35.103Z,74.43
2018-11-20T01:11:43.606Z,74.04
2018-11-20T01:14:52.092Z,74.54
2018-11-20T01:17:32.505Z,74.05
2018-11-20T01:20:41.022Z,74.36
2018-11-20T01:23:49.523Z,74.19
2018-11-20T01:26:32.137Z,74.62
2018-11-20T01:29:34.294Z,74.33
2018-11-20T01:38:39.742Z,74.83
2018-11-20T01:41:39.004Z,74.56
2018-11-20T01:44:33.554Z,74.75
2018-11-20T01:47:23.054Z,74.94
2018-11-20T01:50:31.537Z,75.32
2018-11-20T01:56:34.060Z,75.22
2018-11-20T01:59:35.499Z,75.32
2018-11-20T02:02:27.707Z,75.06
2018-11-20T02:05:33.213Z,75.23
2018-11-20T02:08:41.715Z,75.17
2018-11-20T02:11:39.119Z,74.92
2018-11-20T02:14:42.006Z,74.89
2018-11-20T02:17:31.014Z,74.89
2018-11-20T02:23:31.201Z,75.01
2018-11-20T02:29:47.419Z,75.19
2018-11-20T02:32:32.282Z,75.12
2018-11-20T02:35:40.794Z,74.96
2018-11-20T02:38:41.623Z,74.75
2018-11-20T02:41:40.517Z,75.39
2018-11-20T02:44:42.087Z,75.33
2018-11-20T02:53:36.306Z,75.12
2018-11-20T02:56:25.764Z,75.17
2018-11-20T03:05:36.655Z,75.28
2018-11-20T03:08:37.335Z,75.05
2018-11-20T03:11:45.815Z,75.57
2018-11-20T03:14:41.109Z,75.39
2018-11-20T03:17:49.598Z,75.06
2018-11-20T03:20:39.069Z,75.35
2018-11-20T03:23:47.535Z,75.28
2018-11-20T03:26:26.870Z,75.20
2018-11-20T03:30:16.125Z,74.95
2018-11-20T03:33:22.852Z,75.15
2018-11-20T03:36:31.348Z,74.96
2018-11-20T03:39:32.475Z,74.98
2018-11-20T03:42:21.968Z,75.04
2018-11-20T03:45:30.448Z,75.34
2018-11-20T03:48:31.492Z,75.77
2018-11-20T03:51:39.966Z,75.95
2018-11-20T03:54:33.457Z,75.92
2018-11-20T03:57:34.019Z,75.70
2018-11-20T04:00:16.727Z,75.83
2018-11-20T04:03:25.280Z,75.44
2018-11-20T04:06:33.774Z,75.59
2018-11-20T04:09:35.197Z,75.54
2018-11-20T04:12:25.320Z,75.78
2018-11-20T04:15:33.812Z,76.14
2018-11-20T04:18:32.200Z,75.59
2018-11-20T04:21:32.909Z,75.88
2018-11-20T04:24:33.919Z,76.12
2018-11-20T04:27:42.409Z,75.95
2018-11-20T04:31:15.984Z,75.96
2018-11-20T04:34:15.206Z,75.63
2018-11-20T04:37:01.646Z,75.63
2018-11-20T04:43:00.504Z,75.91
2018-11-20T04:46:08.970Z,75.99
2018-11-20T04:49:09.813Z,75.93
2018-11-20T04:51:46.796Z,76.25
2018-11-20T04:54:55.262Z,76.18
2018-11-20T04:58:03.784Z,76.21
2018-11-20T05:01:05.069Z,76.25
2018-11-20T05:04:13.550Z,75.78
2018-11-20T05:07:03.076Z,75.84
2018-11-20T05:09:49.441Z,75.81
2018-11-20T05:12:57.940Z,76.12
2018-11-20T05:15:39.995Z,76.03
2018-11-20T05:18:47.868Z,75.86
2018-11-20T05:21:37.343Z,76.27
2018-11-20T05:24:29.165Z,76.16
2018-11-20T05:27:26.505Z,76.33
2018-11-20T05:30:17.402Z,76.34
2018-11-20T05:33:25.899Z,76.58
2018-11-20T05:36:27.303Z,76.72
2018-11-20T05:39:08.620Z,76.61
2018-11-20T05:41:54.382Z,76.40
2018-11-20T05:45:02.900Z,76.81
2018-11-20T05:47:52.395Z,76.74
2018-11-20T05:51:00.913Z,76.94
2018-11-20T05:54:09.432Z,76.84
2018-11-20T05:56:58.514Z,76.36
2018-11-20T06:03:02.368Z,76.50
2018-11-20T06:05:58.241Z,76.62
2018-11-20T06:08:47.729Z,76.70
2018-11-20T06:11:56.226Z,76.89
2018-11-20T06:14:57.608Z,76.48
2018-11-20T06:17:49.778Z,76.95
2018-11-20T06:20:58.284Z,76.66
2018-11-20T06:23:47.778Z,76.46
2018-11-20T06:26:35.620Z,76.79
2018-11-20T06:29:31.227Z,77.08
2018-11-20T06:32:23.624Z,76.84
2018-11-20T06:35:13.142Z,77.13
2018-11-20T06:38:02.630Z,77.55
2018-11-20T06:40:52.294Z,77.34
2018-11-20T06:43:41.773Z,77.08
2018-11-20T06:46:49.473Z,77.46
2018-11-20T06:49:58.008Z,77.52
2018-11-20T06:52:59.493Z,77.40
2018-11-20T06:58:33.976Z,77.50
2018-11-20T07:04:28.409Z,76.97
2018-11-20T07:07:18.391Z,77.41
2018-11-20T07:10:27.074Z,77.49
2018-11-20T07:13:31.099Z,77.64
2018-11-20T07:16:59.514Z,77.29
2018-11-20T07:19:57.819Z,77.57
2018-11-20T07:22:47.402Z,77.69
2018-11-20T07:28:35.122Z,77.43
2018-11-20T07:31:29.533Z,77.69
2018-11-20T07:37:37.632Z,77.24
2018-11-20T07:40:28.400Z,76.99
2018-11-20T07:43:17.946Z,76.77
2018-11-20T07:46:07.406Z,77.44
2018-11-20T07:49:15.862Z,77.29
2018-11-20T07:52:17.995Z,76.79
2018-11-20T07:55:06.130Z,76.92
2018-11-20T07:57:57.676Z,77.32
2018-11-20T08:00:45.779Z,77.23
2018-11-20T08:03:35.254Z,76.77
2018-11-20T08:06:39.929Z,77.11
2018-11-20T08:09:48.519Z,76.85
2018-11-20T08:12:57.008Z,77.19
2018-11-20T08:15:46.584Z,77.54
2018-11-20T08:21:31.471Z,77.85
2018-11-20T08:24:39.971Z,77.45
2018-11-20T08:27:38.017Z,77.57
2018-11-20T08:30:46.485Z,77.39
2018-11-20T08:33:50.950Z,77.37
2018-11-20T08:36:37.391Z,77.29
2018-11-20T08:39:27.439Z,77.54
2018-11-20T08:42:14.657Z,78.08
2018-11-20T08:45:04.031Z,77.37
2018-11-20T08:47:52.354Z,77.65
2018-11-20T08:51:00.096Z,77.25
2018-11-20T08:53:52.553Z,76.61
2018-11-20T08:56:42.072Z,77.04
2018-11-20T08:59:31.562Z,76.80
2018-11-20T09:02:40.088Z,77.64
2018-11-20T09:05:36.324Z,76.48
2018-11-20T09:08:16.699Z,76.28
2018-11-20T09:11:06.218Z,76.75
2018-11-20T09:13:50.116Z,75.35
2018-11-20T09:16:39.565Z,75.84
2018-11-20T09:19:27.431Z,75.58
2018-11-20T09:22:17.022Z,75.92
2018-11-20T09:25:25.509Z,75.63
2018-11-20T09:28:11.227Z,75.68
2018-11-20T09:31:22.530Z,75.85
2018-11-20T09:34:10.804Z,75.12
2018-11-20T09:36:48.347Z,74.77
2018-11-20T09:39:25.228Z,75.24
2018-11-20T09:42:21.525Z,74.55
2018-11-20T09:45:54.983Z,74.85
2018-11-20T09:48:45.591Z,73.71
2018-11-20T09:51:40.321Z,73.89
2018-11-20T09:54:29.904Z,73.68
2018-11-20T09:57:13.934Z,73.62
2018-11-20T10:00:18.636Z,73.54
2018-11-20T10:03:17.715Z,73.11
2018-11-20T10:06:19.218Z,73.08
2018-11-20T10:09:29.346Z,72.47
2018-11-20T10:12:26.304Z,71.90
2018-11-20T10:15:34.791Z,72.34
2018-11-20T10:18:35.697Z,72.12
2018-11-20T10:21:44.272Z,71.93
2018-11-20T10:24:45.306Z,72.43
2018-11-20T10:27:53.747Z,72.18
2018-11-20T10:30:54.434Z,72.28
2018-11-20T10:34:02.960Z,73.75
2018-11-20T10:37:04.391Z,72.02
2018-11-20T10:40:13.022Z,71.06
2018-11-20T10:43:21.471Z,71.53
2018-11-20T10:46:28.736Z,72.38
2018-11-20T10:49:37.222Z,71.39
2018-11-20T10:52:38.953Z,71.21
2018-11-20T10:55:30.407Z,71.56
2018-11-20T10:58:38.911Z,72.06
2018-11-20T11:01:47.435Z,71.86
2018-11-20T11:04:48.079Z,71.03
2018-11-20T11:07:56.675Z,70.71
2018-11-20T11:10:57.774Z,71.11
2018-11-20T11:14:06.265Z,71.61
2018-11-20T11:17:10.385Z,71.48
2018-11-20T11:20:18.891Z,71.18
2018-11-20T11:23:12.169Z,72.76
2018-11-20T11:26:20.752Z,72.09
2018-11-20T11:29:27.943Z,71.66
2018-11-20T11:32:17.429Z,71.46
2018-11-20T11:35:18.232Z,72.43
2018-11-20T11:38:15.895Z,71.35
2018-11-20T11:41:24.512Z,71.09
2018-11-20T11:44:25.226Z,71.03
2018-11-20T11:47:33.797Z,71.83
2018-11-20T11:50:42.377Z,70.89
2018-11-20T11:53:38.058Z,70.58
2018-11-20T11:56:39.422Z,71.40
2018-11-20T11:59:47.917Z,71.09
2018-11-20T12:05:48.618Z,70.89
2018-11-20T12:08:49.859Z,70.72
2018-11-20T12:11:58.363Z,71.16
2018-11-20T12:14:59.437Z,70.43
2018-11-20T12:17:48.922Z,69.77
2018-11-20T12:20:57.448Z,70.64
2018-11-20T12:23:46.968Z,69.66
2018-11-20T12:26:55.491Z,70.27
2018-11-20T12:29:53.363Z,69.97
2018-11-20T12:33:02.368Z,70.00
2018-11-20T12:36:03.207Z,70.29
2018-11-20T12:39:07.702Z,69.42
2018-11-20T12:42:08.044Z,69.13
2018-11-20T12:45:07.743Z,68.11
2018-11-20T12:48:08.957Z,68.42
2018-11-20T12:51:19.736Z,69.20
2018-11-20T12:54:07.935Z,68.24
2018-11-20T12:56:56.135Z,68.44
2018-11-20T12:59:44.257Z,68.15
2018-11-20T13:02:43.420Z,68.61
2018-11-20T13:05:31.565Z,68.71
2018-11-20T13:08:31.037Z,68.84
2018-11-20T13:11:11.755Z,69.31
2018-11-20T13:13:59.583Z,68.98
2018-11-20T13:16:58.268Z,68.45
2018-11-20T13:19:46.270Z,68.29
2018-11-20T13:22:35.673Z,68.80
2018-11-20T13:25:22.363Z,68.04
2018-11-20T13:28:10.510Z,68.79
2018-11-20T13:30:58.713Z,68.83
2018-11-20T13:33:51.128Z,69.29
2018-11-20T13:36:38.899Z,68.86
2018-11-20T13:39:30.308Z,68.92
2018-11-20T13:42:43.392Z,68.75
2018-11-20T13:45:27.548Z,68.73
2018-11-20T13:48:15.771Z,69.00
2018-11-20T13:51:05.300Z,69.39
2018-11-20T13:54:00.592Z,69.88
2018-11-20T13:56:52.905Z,70.27
2018-11-20T13:59:42.415Z,70.12
2018-11-20T14:02:26.588Z,69.69
2018-11-20T14:05:16.180Z,70.14
2018-11-20T14:08:21.765Z,71.08
2018-11-20T14:11:02.717Z,70.60
2018-11-20T14:13:41.847Z,71.92
2018-11-20T14:16:37.152Z,71.91
2018-11-20T14:19:22.370Z,71.39
2018-11-20T14:21:59.056Z,72.19
2018-11-20T14:24:46.934Z,72.26
2018-11-20T14:27:34.481Z,72.30
2018-11-20T14:30:23.721Z,72.66
2018-11-20T14:33:12.904Z,72.91
2018-11-20T14:36:08.224Z,72.73
2018-11-20T14:38:57.777Z,72.97
2018-11-20T14:41:45.758Z,72.48
2018-11-20T14:44:33.921Z,72.55
2018-11-20T14:47:15.902Z,72.76
2018-11-20T14:50:02.602Z,73.48
2018-11-20T14:52:55.141Z,73.20
2018-11-20T14:55:41.615Z,73.36
2018-11-20T14:58:17.509Z,73.61
2018-11-20T15:01:09.298Z,74.09
2018-11-20T15:04:16.824Z,74.18
2018-11-20T15:06:54.739Z,74.35
2018-11-20T15:09:35.085Z,74.09
2018-11-20T15:12:22.997Z,73.53
2018-11-20T15:15:11.036Z,74.43
2018-11-20T15:17:59.408Z,75.39
2018-11-20T15:20:54.081Z,75.50
2018-11-20T15:23:46.415Z,75.84
2018-11-20T15:26:34.491Z,76.55
2018-11-20T15:29:13.577Z,76.51
2018-11-20T15:32:01.589Z,76.42
2018-11-20T15:34:46.091Z,76.53
2018-11-20T15:37:29.130Z,76.69
2018-11-20T15:40:20.830Z,77.24
2018-11-20T15:43:00.419Z,77.77
2018-11-20T15:45:51.135Z,78.31
2018-11-20T15:48:52.319Z,78.40
2018-11-20T15:51:46.244Z,79.18
2018-11-20T15:54:34.342Z,79.09
2018-11-20T15:57:22.261Z,79.68
2018-11-20T16:00:06.293Z,79.75
2018-11-20T16:02:54.155Z,79.88
2018-11-20T16:05:42.428Z,79.24
2018-11-20T16:08:34.809Z,79.39
2018-11-20T16:11:26.053Z,79.42
2018-11-20T16:14:14.575Z,79.88
2018-11-20T16:17:16.533Z,80.26
2018-11-20T16:19:50.692Z,80.50
2018-11-20T16:22:38.848Z,80.23
2018-11-20T16:25:30.722Z,79.40
2018-11-20T16:28:22.396Z,80.22
2018-11-20T16:31:30.047Z,80.93
2018-11-20T16:34:18.237Z,81.43
2018-11-20T16:37:16.807Z,82.18
2018-11-20T16:40:10.649Z,82.82
2018-11-20T16:42:58.699Z,82.68
2018-11-20T16:46:00.482Z,83.24
2018-11-20T16:49:05.338Z,83.21
2018-11-20T16:51:53.252Z,83.35
2018-11-20T16:54:48.115Z,84.09
2018-11-20T16:57:36.238Z,84.54
2018-11-20T17:00:26.566Z,84.93
2018-11-20T17:03:28.569Z,84.37
2018-11-20T17:06:18.009Z,84.57
2018-11-20T17:09:07.523Z,85.01
2018-11-20T17:11:55.665Z,85.33
2018-11-20T17:14:35.656Z,85.77
2018-11-20T17:17:26.395Z,85.91
2018-11-20T17:20:14.273Z,86.66
2018-11-20T17:23:09.602Z,86.66
2018-11-20T17:25:59.108Z,86.93
2018-11-20T17:28:54.313Z,86.84
2018-11-20T17:31:46.730Z,86.84
2018-11-20T17:34:42.074Z,87.24
2018-11-20T17:37:21.919Z,88.41
2018-11-20T17:40:21.063Z,88.61
2018-11-20T17:43:08.561Z,89.24
2018-11-20T17:46:10.016Z,89.75
2018-11-20T17:49:02.548Z,90.53
2018-11-20T17:52:00.491Z,90.92
2018-11-20T17:55:30.775Z,90.77
2018-11-20T17:58:14.362Z,90.87
2018-11-20T18:01:15.035Z,90.98
2018-11-20T18:04:02.255Z,91.54
2018-11-20T18:06:51.073Z,91.89
2018-11-20T18:09:43.046Z,92.40
2018-11-20T18:12:31.094Z,92.16
2018-11-20T18:15:19.263Z,93.70
2018-11-20T18:18:08.168Z,94.18
2018-11-20T18:20:55.097Z,93.16
2018-11-20T18:23:48.614Z,93.32
2018-11-20T18:26:35.561Z,93.69
2018-11-20T18:29:22.782Z,93.74
2018-11-20T18:32:13.416Z,94.03
2018-11-20T18:35:00.006Z,94.23
2018-11-20T18:38:03.390Z,94.43
2018-11-20T18:40:54.621Z,94.33
2018-11-20T18:43:44.265Z,94.57
2018-11-20T18:46:51.958Z,94.91
2018-11-20T18:49:52.153Z,94.76
2018-11-20T18:55:00.693Z,94.47
2018-11-20T18:57:55.128Z,94.88
2018-11-20T19:00:48.640Z,94.72
2018-11-20T19:03:41.221Z,95.32
2018-11-20T19:06:44.316Z,96.63
2018-11-20T19:09:52.082Z,96.48
2018-11-20T19:12:52.353Z,96.32
2018-11-20T19:16:00.228Z,95.80
2018-11-20T19:19:00.700Z,96.56
2018-11-20T19:22:09.070Z,95.64
2018-11-20T19:25:09.920Z,96.76
2018-11-20T19:28:17.599Z,96.85
2018-11-20T19:31:22.436Z,96.69
2018-11-20T19:34:31.160Z,97.02
2018-11-20T19:37:31.650Z,97.29
2018-11-20T19:40:39.386Z,97.95
2018-11-20T19:43:45.633Z,97.50
2018-11-20T19:47:15.213Z,97.57
2018-11-20T19:53:12.750Z,98.56
2018-11-20T19:56:20.520Z,99.33
2018-11-20T19:59:21.152Z,100.00
2018-11-20T20:02:36.600Z,100.00
2018-11-20T20:05:36.515Z,100.00
2018-11-20T20:08:44.350Z,100.00
2018-11-20T20:11:32.913Z,100.00
2018-11-20T20:18:07.605Z,100.00
2018-11-20T20:21:05.196Z,100.00
2018-11-20T20:23:47.605Z,100.00
2018-11-20T20:26:35.410Z,100.00
2018-11-20T20:32:31.198Z,99.88
2018-11-20T20:35:22.861Z,100.00
2018-11-20T20:38:29.653Z,100.00
2018-11-20T20:41:21.934Z,100.00
2018-11-20T20:44:10.032Z,100.00
2018-11-20T20:47:08.430Z,100.00
2018-11-20T20:50:03.128Z,100.00
2018-11-20T20:52:57.682Z,100.00
2018-11-20T20:55:55.473Z,100.00
2018-11-20T20:58:46.124Z,100.00
2018-11-20T21:01:32.475Z,100.00
2018-11-20T21:04:15.066Z,100.00
2018-11-20T21:07:32.443Z,100.00
2018-11-20T21:10:18.918Z,100.00
2018-11-20T21:13:05.593Z,100.00
2018-11-20T21:15:54.316Z,100.00
2018-11-20T21:18:54.856Z,100.00
2018-11-20T21:22:08.527Z,100.00
2018-11-20T21:25:02.860Z,100.00
2018-11-20T21:28:00.335Z,100.00
2018-11-20T21:30:47.460Z,100.00
2018-11-20T21:33:52.051Z,100.00
2018-11-20T21:36:40.647Z,100.00
2018-11-20T21:39:33.411Z,100.00
2018-11-20T21:42:31.667Z,100.00
2018-11-20T21:45:22.175Z,100.00
2018-11-20T21:48:16.819Z,100.00
2018-11-20T21:51:08.322Z,100.00
2018-11-20T21:53:53.917Z,100.00
2018-11-20T21:56:42.293Z,100.00
2018-11-20T21:59:48.447Z,100.00
2018-11-20T22:02:38.033Z,100.00
2018-11-20T22:05:20.465Z,100.00
2018-11-20T22:08:15.423Z,100.00
2018-11-20T22:11:08.732Z,100.00
2018-11-20T22:14:08.358Z,100.00
2018-11-20T22:16:55.442Z,100.00
2018-11-20T22:20:06.799Z,100.00
2018-11-20T22:23:08.690Z,100.00
2018-11-20T22:25:55.543Z,100.00
2018-11-20T22:28:42.307Z,100.00
2018-11-20T22:31:29.005Z,100.00
2018-11-20T22:34:25.245Z,100.00
2018-11-20T22:37:38.831Z,100.00
2018-11-20T22:40:27.947Z,100.00
2018-11-20T22:43:22.223Z,100.00
2018-11-20T22:46:14.430Z,100.00
2018-11-20T22:49:06.497Z,100.00
2018-11-20T22:51:53.684Z,100.00
2018-11-20T22:54:53.552Z,100.00
2018-11-20T22:58:05.530Z,100.00
2018-11-20T23:00:52.089Z,100.00
2018-11-20T23:03:39.746Z,100.00
2018-11-20T23:06:39.814Z,100.00
2018-11-20T23:09:13.180Z,100.00
2018-11-20T23:11:42.594Z,100.00
2018-11-20T23:14:16.080Z,100.00
2018-11-20T23:16:46.133Z,100.00
2018-11-20T23:19:15.702Z,100.00
2018-11-20T23:21:45.204Z,100.00
2018-11-20T23:24:15.965Z,100.00
2018-11-20T23:26:46.106Z,100.00
2018-11-20T23:29:15.719Z,100.00
2018-11-20T23:31:49.352Z,100.00
2018-11-20T23:34:18.864Z,100.00
2018-11-20T23:36:48.626Z,100.00
2018-11-20T23:39:18.303Z,100.00
2018-11-20T23:41:47.711Z,100.00
2018-11-20T23:44:17.126Z,100.00
2018-11-20T23:46:46.769Z,100.00
2018-11-20T23:49:16.345Z,100.00
2018-11-20T23:51:45.728Z,100.00
2018-11-20T23:54:15.440Z,100.00
2018-11-20T23:56:44.870Z,100.00
2018-11-20T23:59:14.562Z,100.00
